Atlantic Enterprise — WDI8007 — position and weather

sailwx.info

Track history (hours):
 
Tides and Currents Weather Stations Pressure Air Temp Water Temp Dewpoint Dewpoint Depression Visibility Wind Speed Wind Dir Waves Ship Positions

Atlantic Enterprise

Owner: Donjon Marine Co., Inc., Hillside, NJ. More information available from US FCC via Universal Licensing System and Coast Guard Vessel Documentation Center.

Last reported at 2017-Oct-20 12:30 UTC. Time now 2017-Oct-20 12:40 UTC.
Position N 41°14' W 072°12'.

; draft 6.1 m.

Type: Tow > 200 m length. MMSI: 367313240.

Date/timePositionNaut miles runAvg speedWind from/ knotsBaromVisibWave heightAir tempDewpointWater temp
2017-Oct-20 12:30N 41°14' W 072°12'1 2.4
2017-Oct-20 12:00N 41°14' W 072°14'1 2.9
2017-Oct-20 11:30N 41°13' W 072°16'2 3.6
2017-Oct-20 10:59N 41°13' W 072°18'2 5.1
2017-Oct-20 10:30N 41°12' W 072°21'4 8.1
2017-Oct-20 10:00N 41°11' W 072°26'4 8.6
2017-Oct-20 09:30N 41°10' W 072°32'4 8.9
2017-Oct-20 09:00N 41°10' W 072°38'5 9.1
2017-Oct-20 08:29N 41°09' W 072°44'6 3.7
2017-Oct-20 06:51N 41°09' W 072°52'2 4.9
2017-Oct-20 06:25N 41°09' W 072°49'2 5.7
2017-Oct-20 06:00N 41°09' W 072°46'3 5.8
2017-Oct-20 05:30N 41°09' W 072°42'3 5.9
2017-Oct-20 05:00N 41°10' W 072°38'3 5.8
2017-Oct-20 04:29N 41°10' W 072°34'3 6.0
2017-Oct-20 04:00N 41°10' W 072°31'3 6.3
2017-Oct-20 03:30N 41°11' W 072°26'4 8.0
2017-Oct-20 03:00N 41°12' W 072°21'4 8.5
2017-Oct-20 02:30N 41°13' W 072°16'9 1.4
2017-Oct-19 19:54N 41°17' W 072°05'2 2.4
2017-Oct-19 19:12N 41°16' W 072°05'1 1.3
2017-Oct-19 18:36N 41°15' W 072°06'1 1.7
2017-Oct-19 17:56N 41°16' W 072°05'6 2.4
2017-Oct-19 15:39N 41°14' W 072°12'1 7.3
2017-Oct-19 15:30N 41°14' W 072°13'3 6.9
2017-Oct-19 15:00N 41°13' W 072°18'3 6.6
2017-Oct-19 14:30N 41°12' W 072°22'4 6.9
2017-Oct-19 14:00N 41°11' W 072°26'4 8.2
2017-Oct-19 13:30N 41°10' W 072°32'4 8.2
2017-Oct-19 13:00N 41°10' W 072°37'4 8.2
2017-Oct-19 12:27N 41°09' W 072°43'5 1.9
2017-Oct-19 09:59N 41°09' W 072°49'4 7.9
2017-Oct-19 09:30N 41°09' W 072°44'4 7.6
2017-Oct-19 09:00N 41°10' W 072°39'4 7.2
2017-Oct-19 08:30N 41°10' W 072°34'3 6.7
2017-Oct-19 08:00N 41°10' W 072°30'3 6.6
2017-Oct-19 07:30N 41°11' W 072°26'3 6.5
2017-Oct-19 07:00N 41°12' W 072°21'3 5.4
2017-Oct-19 06:26N 41°13' W 072°18'3 5.5
2017-Oct-19 05:53N 41°14' W 072°14'4 0.5
2017-Oct-18 21:57N 41°15' W 072°09'3 7.3
2017-Oct-18 21:30N 41°14' W 072°13'4 8.0
2017-Oct-18 20:59N 41°13' W 072°18'4 8.1
2017-Oct-18 20:30N 41°12' W 072°23'4 8.0
2017-Oct-18 20:00N 41°11' W 072°28'4 8.5
2017-Oct-18 19:30N 41°10' W 072°34'4 8.7
2017-Oct-18 19:00N 41°09' W 072°40'4 8.6
2017-Oct-18 18:30N 41°09' W 072°45'4 8.5
2017-Oct-18 18:00N 41°08' W 072°51'1 1.5
2017-Oct-18 17:17N 41°09' W 072°52'1 4.7
2017-Oct-18 17:00N 41°09' W 072°51'3 5.7
2017-Oct-18 16:28N 41°09' W 072°47'3 7.2
2017-Oct-18 16:00N 41°09' W 072°42'4 7.3
2017-Oct-18 15:30N 41°10' W 072°37'4 7.3
2017-Oct-18 15:00N 41°10' W 072°33'8 7.9
2017-Oct-18 14:00N 41°12' W 072°22'5 9.1
2017-Oct-18 13:29N 41°13' W 072°16'10 1.3
2017-Oct-18 06:10N 41°18' W 072°05'4 7.2
2017-Oct-18 05:40N 41°15' W 072°08'3 9.8
2017-Oct-18 05:19N 41°14' W 072°12'310.1
2017-Oct-18 05:00N 41°13' W 072°16'510.2
2017-Oct-18 04:30N 41°12' W 072°23'5 9.4
2017-Oct-18 04:00N 41°11' W 072°29'5 9.0
2017-Oct-18 03:30N 41°10' W 072°35'4 8.7
2017-Oct-18 03:00N 41°10' W 072°40'4 1.7
2017-Oct-18 00:18N 41°09' W 072°46'3 8.7
2017-Oct-18 00:00N 41°09' W 072°43'4 8.8
2017-Oct-17 23:30N 41°10' W 072°37'5 9.1
2017-Oct-17 23:00N 41°10' W 072°31'5 9.6
2017-Oct-17 22:30N 41°11' W 072°25'5 9.5
2017-Oct-17 22:00N 41°13' W 072°19'4 8.8
2017-Oct-17 21:30N 41°14' W 072°13'1 0.1
2017-Oct-17 14:36N 41°14' W 072°12'1 9.1
2017-Oct-17 14:28N 41°14' W 072°13'4 8.9
2017-Oct-17 14:00N 41°13' W 072°19'4 8.4
2017-Oct-17 13:30N 41°12' W 072°24'4 8.5
2017-Oct-17 13:00N 41°10' W 072°30'4 8.3
2017-Oct-17 12:30N 41°10' W 072°35'4 8.3
2017-Oct-17 12:00N 41°10' W 072°41'4 8.3
2017-Oct-17 11:30N 41°09' W 072°46'2 1.1
2017-Oct-17 09:37N 41°09' W 072°49'1 8.2
2017-Oct-17 09:28N 41°09' W 072°47'4 8.8
2017-Oct-17 09:00N 41°09' W 072°42'5 8.6
2017-Oct-17 08:24N 41°10' W 072°35'3 8.3
2017-Oct-17 08:00N 41°10' W 072°31'4 7.9
2017-Oct-17 07:30N 41°11' W 072°26'4 7.5
2017-Oct-17 07:00N 41°12' W 072°21'3 6.7
2017-Oct-17 06:30N 41°13' W 072°17'3 6.3
2017-Oct-17 06:00N 41°14' W 072°12'4 0.6
2017-Oct-16 23:39N 41°15' W 072°08'3 7.2
2017-Oct-16 23:13N 41°14' W 072°12'2 6.9
2017-Oct-16 22:54N 41°14' W 072°14'3 7.0
2017-Oct-16 22:30N 41°13' W 072°18'3 7.0
2017-Oct-16 22:00N 41°12' W 072°22'4 7.3
2017-Oct-16 21:30N 41°11' W 072°27'4 7.7
2017-Oct-16 21:00N 41°10' W 072°32'4 8.4
2017-Oct-16 20:30N 41°10' W 072°38'5 8.9
2017-Oct-16 20:00N 41°10' W 072°44'4 2.2
2017-Oct-16 18:04N 41°09' W 072°49'2 7.1
2017-Oct-16 17:50N 41°09' W 072°47'2 7.0
2017-Oct-16 17:30N 41°09' W 072°44'3 6.8
2017-Oct-16 17:00N 41°10' W 072°40'3 6.5
2017-Oct-16 16:30N 41°10' W 072°35'3 6.1
2017-Oct-16 16:00N 41°10' W 072°31'3 5.9
2017-Oct-16 15:30N 41°11' W 072°27'3 6.2
2017-Oct-16 15:00N 41°12' W 072°23'3 6.6
2017-Oct-16 14:30N 41°13' W 072°19'12 1.7
2017-Oct-16 07:24N 41°17' W 072°04'6 3.0
2017-Oct-16 05:25N 41°14' W 072°12'510.9
2017-Oct-16 05:00N 41°13' W 072°17'510.3
2017-Oct-16 04:30N 41°12' W 072°24'5 9.7
2017-Oct-16 04:00N 41°10' W 072°30'5 9.8
2017-Oct-16 03:30N 41°10' W 072°37'7 1.2
2017-Oct-15 21:52N 41°09' W 072°46'3 8.9
2017-Oct-15 21:30N 41°09' W 072°41'5 9.0
2017-Oct-15 20:57N 41°10' W 072°35'4 9.5
2017-Oct-15 20:30N 41°10' W 072°29'5 9.2
2017-Oct-15 20:00N 41°12' W 072°23'4 8.4
2017-Oct-15 19:30N 41°13' W 072°18'4 7.8
2017-Oct-15 19:00N 41°14' W 072°13'6 0.9
2017-Oct-15 12:17N 41°16' W 072°06'5 3.3
2017-Oct-15 10:48N 41°14' W 072°12'1 2.6
2017-Oct-15 10:30N 41°14' W 072°13'1 2.3
2017-Oct-15 10:00N 41°14' W 072°14'1 2.4
2017-Oct-15 09:27N 41°14' W 072°16'1 2.6
2017-Oct-15 09:00N 41°13' W 072°17'1 2.7
2017-Oct-15 08:27N 41°13' W 072°19'1 2.9
2017-Oct-15 08:00N 41°12' W 072°21'2 3.2
2017-Oct-15 07:30N 41°12' W 072°23'2 3.5
2017-Oct-15 07:00N 41°11' W 072°25'2 3.8
2017-Oct-15 06:30N 41°11' W 072°28'2 4.5
2017-Oct-15 06:00N 41°10' W 072°30'3 5.0
2017-Oct-15 05:30N 41°10' W 072°34'3 5.2
2017-Oct-15 05:00N 41°10' W 072°37'3 5.3
2017-Oct-15 04:30N 41°10' W 072°41'3 5.3
2017-Oct-15 03:58N 41°09' W 072°45'4 1.7
2017-Oct-15 01:35N 41°09' W 072°50'3 7.1
2017-Oct-15 01:12N 41°09' W 072°46'1 7.2
2017-Oct-15 01:00N 41°09' W 072°44'4 7.6
2017-Oct-15 00:30N 41°10' W 072°39'4 7.6
2017-Oct-14 23:59N 41°10' W 072°34'4 7.8
2017-Oct-14 23:30N 41°10' W 072°29'4 8.4
2017-Oct-14 23:00N 41°12' W 072°24'5 9.3
2017-Oct-14 22:30N 41°13' W 072°18'4 0.7
2017-Oct-14 15:52N 41°14' W 072°12'3 9.3
2017-Oct-14 15:30N 41°13' W 072°17'5 9.2
2017-Oct-14 15:00N 41°12' W 072°22'4 8.5
2017-Oct-14 14:30N 41°11' W 072°28'4 8.5
2017-Oct-14 14:00N 41°10' W 072°33'4 8.0
2017-Oct-14 13:30N 41°10' W 072°39'5 1.7
2017-Oct-14 10:31N 41°09' W 072°45'0 8.8
2017-Oct-14 10:29N 41°09' W 072°45'4 8.8
2017-Oct-14 10:00N 41°10' W 072°40'4 8.9
2017-Oct-14 09:30N 41°10' W 072°34'5 9.1
2017-Oct-14 08:59N 41°11' W 072°27'5 9.6
2017-Oct-14 08:30N 41°12' W 072°22'6 9.7
2017-Oct-14 07:51N 41°14' W 072°14'1 0.1
2017-Oct-14 01:13N 41°14' W 072°12'310.7
2017-Oct-14 00:56N 41°13' W 072°16'510.8
2017-Oct-14 00:28N 41°12' W 072°23'1110.0
2017-Oct-13 23:20N 41°10' W 072°37'7 2.1
2017-Oct-13 20:08N 41°09' W 072°46'1 9.0
2017-Oct-13 20:00N 41°09' W 072°45'4 9.1
2017-Oct-13 19:30N 41°10' W 072°39'5 9.3
2017-Oct-13 19:00N 41°10' W 072°33'5 9.5
2017-Oct-13 18:30N 41°11' W 072°26'5 9.4
2017-Oct-13 18:00N 41°13' W 072°20'5 8.5
2017-Oct-13 17:22N 41°14' W 072°13'4 0.6
2017-Oct-13 11:15N 41°15' W 072°09'3 9.2
2017-Oct-13 10:59N 41°14' W 072°12'4 9.1
2017-Oct-13 10:29N 41°13' W 072°18'4 8.6
2017-Oct-13 10:00N 41°12' W 072°23'4 8.5
2017-Oct-13 09:30N 41°11' W 072°29'4 8.2
2017-Oct-13 09:00N 41°10' W 072°34'4 7.8
2017-Oct-13 08:30N 41°10' W 072°39'4 7.7
2017-Oct-13 08:00N 41°09' W 072°44'1 0.5
2017-Oct-13 05:11N 41°09' W 072°46'1 8.5
2017-Oct-13 05:00N 41°09' W 072°44'4 8.3
2017-Oct-13 04:30N 41°10' W 072°39'4 8.1
2017-Oct-13 04:00N 41°10' W 072°33'4 7.9
2017-Oct-13 03:30N 41°11' W 072°28'4 7.6
2017-Oct-13 03:00N 41°12' W 072°23'3 6.9
2017-Oct-13 02:30N 41°13' W 072°19'3 6.1
2017-Oct-13 01:59N 41°14' W 072°15'5 0.6
2017-Oct-12 17:41N 41°15' W 072°09'3 6.1
2017-Oct-12 17:13N 41°14' W 072°12'1 6.3
2017-Oct-12 17:00N 41°14' W 072°14'4 6.7
2017-Oct-12 16:26N 41°13' W 072°19'3 7.1
2017-Oct-12 16:00N 41°12' W 072°23'4 7.3
2017-Oct-12 15:30N 41°11' W 072°27'4 7.6
2017-Oct-12 15:00N 41°10' W 072°32'4 7.9
2017-Oct-12 14:30N 41°10' W 072°38'4 8.0
2017-Oct-12 14:00N 41°10' W 072°43'5 1.6
2017-Oct-12 11:02N 41°09' W 072°49'1 4.6
2017-Oct-12 10:44N 41°09' W 072°47'1 4.8
2017-Oct-12 10:30N 41°09' W 072°46'3 6.6
2017-Oct-12 09:59N 41°09' W 072°41'5 8.1
2017-Oct-12 09:24N 41°10' W 072°35'3 8.1
2017-Oct-12 09:01N 41°10' W 072°31'4 8.2
2017-Oct-12 08:30N 41°11' W 072°26'5 9.6
2017-Oct-12 08:00N 41°13' W 072°20'510.1
2017-Oct-12 07:28N 41°14' W 072°13'4 0.6
2017-Oct-12 00:25N 41°15' W 072°08'410.3
2017-Oct-12 00:00N 41°14' W 072°13'510.8
2017-Oct-11 23:31N 41°13' W 072°20'510.4
2017-Oct-11 23:00N 41°11' W 072°26'510.1
2017-Oct-11 22:31N 41°10' W 072°33'5 9.5
2017-Oct-11 22:00N 41°10' W 072°39'9 2.4
2017-Oct-11 18:06N 41°09' W 072°52'1 4.2
2017-Oct-11 17:55N 41°09' W 072°51'3 7.4
2017-Oct-11 17:30N 41°09' W 072°47'5 9.9
2017-Oct-11 17:01N 41°09' W 072°40'15 0.9
2017-Oct-11 00:00N 41°12' W 072°21'3 6.3
2017-Oct-10 23:30N 41°13' W 072°17'3 5.9
2017-Oct-10 23:01N 41°14' W 072°13'  
Track history (hours):
 
Tides and Currents Weather Stations Pressure Air Temp Water Temp Dewpoint Dewpoint Depression Visibility Wind Speed Wind Dir Waves Ship Positions

Atlantic Enterprise

Owner: Donjon Marine Co., Inc., Hillside, NJ. More information available from US FCC via Universal Licensing System and Coast Guard Vessel Documentation Center.

Last reported at 2017-Oct-20 12:30 UTC. Time now 2017-Oct-20 12:40 UTC.
Position N 41°14' W 072°12'.

; draft 6.1 m.

Type: Tow > 200 m length. MMSI: 367313240.

Date/timePositionNaut miles runAvg speedWind from/ knotsBaromVisibWave heightAir tempDewpointWater temp
2017-Oct-20 12:30N 41°14' W 072°12'1 2.4
2017-Oct-20 12:00N 41°14' W 072°14'1 2.9
2017-Oct-20 11:30N 41°13' W 072°16'2 3.6
2017-Oct-20 10:59N 41°13' W 072°18'2 5.1
2017-Oct-20 10:30N 41°12' W 072°21'4 8.1
2017-Oct-20 10:00N 41°11' W 072°26'4 8.6
2017-Oct-20 09:30N 41°10' W 072°32'4 8.9
2017-Oct-20 09:00N 41°10' W 072°38'5 9.1
2017-Oct-20 08:29N 41°09' W 072°44'6 3.7
2017-Oct-20 06:51N 41°09' W 072°52'2 4.9
2017-Oct-20 06:25N 41°09' W 072°49'2 5.7
2017-Oct-20 06:00N 41°09' W 072°46'3 5.8
2017-Oct-20 05:30N 41°09' W 072°42'3 5.9
2017-Oct-20 05:00N 41°10' W 072°38'3 5.8
2017-Oct-20 04:29N 41°10' W 072°34'3 6.0
2017-Oct-20 04:00N 41°10' W 072°31'3 6.3
2017-Oct-20 03:30N 41°11' W 072°26'4 8.0
2017-Oct-20 03:00N 41°12' W 072°21'4 8.5
2017-Oct-20 02:30N 41°13' W 072°16'9 1.4
2017-Oct-19 19:54N 41°17' W 072°05'2 2.4
2017-Oct-19 19:12N 41°16' W 072°05'1 1.3
2017-Oct-19 18:36N 41°15' W 072°06'1 1.7
2017-Oct-19 17:56N 41°16' W 072°05'6 2.4
2017-Oct-19 15:39N 41°14' W 072°12'1 7.3
2017-Oct-19 15:30N 41°14' W 072°13'3 6.9
2017-Oct-19 15:00N 41°13' W 072°18'3 6.6
2017-Oct-19 14:30N 41°12' W 072°22'4 6.9
2017-Oct-19 14:00N 41°11' W 072°26'4 8.2
2017-Oct-19 13:30N 41°10' W 072°32'4 8.2
2017-Oct-19 13:00N 41°10' W 072°37'4 8.2
2017-Oct-19 12:27N 41°09' W 072°43'5 1.9
2017-Oct-19 09:59N 41°09' W 072°49'4 7.9
2017-Oct-19 09:30N 41°09' W 072°44'4 7.6
2017-Oct-19 09:00N 41°10' W 072°39'4 7.2
2017-Oct-19 08:30N 41°10' W 072°34'3 6.7
2017-Oct-19 08:00N 41°10' W 072°30'3 6.6
2017-Oct-19 07:30N 41°11' W 072°26'3 6.5
2017-Oct-19 07:00N 41°12' W 072°21'3 5.4
2017-Oct-19 06:26N 41°13' W 072°18'3 5.5
2017-Oct-19 05:53N 41°14' W 072°14'4 0.5
2017-Oct-18 21:57N 41°15' W 072°09'3 7.3
2017-Oct-18 21:30N 41°14' W 072°13'4 8.0
2017-Oct-18 20:59N 41°13' W 072°18'4 8.1
2017-Oct-18 20:30N 41°12' W 072°23'4 8.0
2017-Oct-18 20:00N 41°11' W 072°28'4 8.5
2017-Oct-18 19:30N 41°10' W 072°34'4 8.7
2017-Oct-18 19:00N 41°09' W 072°40'4 8.6
2017-Oct-18 18:30N 41°09' W 072°45'4 8.5
2017-Oct-18 18:00N 41°08' W 072°51'1 1.5
2017-Oct-18 17:17N 41°09' W 072°52'1 4.7
2017-Oct-18 17:00N 41°09' W 072°51'3 5.7
2017-Oct-18 16:28N 41°09' W 072°47'3 7.2
2017-Oct-18 16:00N 41°09' W 072°42'4 7.3
2017-Oct-18 15:30N 41°10' W 072°37'4 7.3
2017-Oct-18 15:00N 41°10' W 072°33'8 7.9
2017-Oct-18 14:00N 41°12' W 072°22'5 9.1
2017-Oct-18 13:29N 41°13' W 072°16'10 1.3
2017-Oct-18 06:10N 41°18' W 072°05'4 7.2
2017-Oct-18 05:40N 41°15' W 072°08'3 9.8
2017-Oct-18 05:19N 41°14' W 072°12'310.1
2017-Oct-18 05:00N 41°13' W 072°16'510.2
2017-Oct-18 04:30N 41°12' W 072°23'5 9.4
2017-Oct-18 04:00N 41°11' W 072°29'5 9.0
2017-Oct-18 03:30N 41°10' W 072°35'4 8.7
2017-Oct-18 03:00N 41°10' W 072°40'4 1.7
2017-Oct-18 00:18N 41°09' W 072°46'3 8.7
2017-Oct-18 00:00N 41°09' W 072°43'4 8.8
2017-Oct-17 23:30N 41°10' W 072°37'5 9.1
2017-Oct-17 23:00N 41°10' W 072°31'5 9.6
2017-Oct-17 22:30N 41°11' W 072°25'5 9.5
2017-Oct-17 22:00N 41°13' W 072°19'4 8.8
2017-Oct-17 21:30N 41°14' W 072°13'1 0.1
2017-Oct-17 14:36N 41°14' W 072°12'1 9.1
2017-Oct-17 14:28N 41°14' W 072°13'4 8.9
2017-Oct-17 14:00N 41°13' W 072°19'4 8.4
2017-Oct-17 13:30N 41°12' W 072°24'4 8.5
2017-Oct-17 13:00N 41°10' W 072°30'4 8.3
2017-Oct-17 12:30N 41°10' W 072°35'4 8.3
2017-Oct-17 12:00N 41°10' W 072°41'4 8.3
2017-Oct-17 11:30N 41°09' W 072°46'2 1.1
2017-Oct-17 09:37N 41°09' W 072°49'1 8.2
2017-Oct-17 09:28N 41°09' W 072°47'4 8.8
2017-Oct-17 09:00N 41°09' W 072°42'5 8.6
2017-Oct-17 08:24N 41°10' W 072°35'3 8.3
2017-Oct-17 08:00N 41°10' W 072°31'4 7.9
2017-Oct-17 07:30N 41°11' W 072°26'4 7.5
2017-Oct-17 07:00N 41°12' W 072°21'3 6.7
2017-Oct-17 06:30N 41°13' W 072°17'3 6.3
2017-Oct-17 06:00N 41°14' W 072°12'4 0.6
2017-Oct-16 23:39N 41°15' W 072°08'3 7.2
2017-Oct-16 23:13N 41°14' W 072°12'2 6.9
2017-Oct-16 22:54N 41°14' W 072°14'3 7.0
2017-Oct-16 22:30N 41°13' W 072°18'3 7.0
2017-Oct-16 22:00N 41°12' W 072°22'4 7.3
2017-Oct-16 21:30N 41°11' W 072°27'4 7.7
2017-Oct-16 21:00N 41°10' W 072°32'4 8.4
2017-Oct-16 20:30N 41°10' W 072°38'5 8.9
2017-Oct-16 20:00N 41°10' W 072°44'4 2.2
2017-Oct-16 18:04N 41°09' W 072°49'2 7.1
2017-Oct-16 17:50N 41°09' W 072°47'2 7.0
2017-Oct-16 17:30N 41°09' W 072°44'3 6.8
2017-Oct-16 17:00N 41°10' W 072°40'3 6.5
2017-Oct-16 16:30N 41°10' W 072°35'3 6.1
2017-Oct-16 16:00N 41°10' W 072°31'3 5.9
2017-Oct-16 15:30N 41°11' W 072°27'3 6.2
2017-Oct-16 15:00N 41°12' W 072°23'3 6.6
2017-Oct-16 14:30N 41°13' W 072°19'12 1.7
2017-Oct-16 07:24N 41°17' W 072°04'6 3.0
2017-Oct-16 05:25N 41°14' W 072°12'510.9
2017-Oct-16 05:00N 41°13' W 072°17'510.3
2017-Oct-16 04:30N 41°12' W 072°24'5 9.7
2017-Oct-16 04:00N 41°10' W 072°30'5 9.8
2017-Oct-16 03:30N 41°10' W 072°37'7 1.2
2017-Oct-15 21:52N 41°09' W 072°46'3 8.9
2017-Oct-15 21:30N 41°09' W 072°41'5 9.0
2017-Oct-15 20:57N 41°10' W 072°35'4 9.5
2017-Oct-15 20:30N 41°10' W 072°29'5 9.2
2017-Oct-15 20:00N 41°12' W 072°23'4 8.4
2017-Oct-15 19:30N 41°13' W 072°18'4 7.8
2017-Oct-15 19:00N 41°14' W 072°13'6 0.9
2017-Oct-15 12:17N 41°16' W 072°06'5 3.3
2017-Oct-15 10:48N 41°14' W 072°12'1 2.6
2017-Oct-15 10:30N 41°14' W 072°13'1 2.3
2017-Oct-15 10:00N 41°14' W 072°14'1 2.4
2017-Oct-15 09:27N 41°14' W 072°16'1 2.6
2017-Oct-15 09:00N 41°13' W 072°17'1 2.7
2017-Oct-15 08:27N 41°13' W 072°19'1 2.9
2017-Oct-15 08:00N 41°12' W 072°21'2 3.2
2017-Oct-15 07:30N 41°12' W 072°23'2 3.5
2017-Oct-15 07:00N 41°11' W 072°25'2 3.8
2017-Oct-15 06:30N 41°11' W 072°28'2 4.5
2017-Oct-15 06:00N 41°10' W 072°30'3 5.0
2017-Oct-15 05:30N 41°10' W 072°34'3 5.2
2017-Oct-15 05:00N 41°10' W 072°37'3 5.3
2017-Oct-15 04:30N 41°10' W 072°41'3 5.3
2017-Oct-15 03:58N 41°09' W 072°45'4 1.7
2017-Oct-15 01:35N 41°09' W 072°50'3 7.1
2017-Oct-15 01:12N 41°09' W 072°46'1 7.2
2017-Oct-15 01:00N 41°09' W 072°44'4 7.6
2017-Oct-15 00:30N 41°10' W 072°39'4 7.6
2017-Oct-14 23:59N 41°10' W 072°34'4 7.8
2017-Oct-14 23:30N 41°10' W 072°29'4 8.4
2017-Oct-14 23:00N 41°12' W 072°24'5 9.3
2017-Oct-14 22:30N 41°13' W 072°18'4 0.7
2017-Oct-14 15:52N 41°14' W 072°12'3 9.3
2017-Oct-14 15:30N 41°13' W 072°17'5 9.2
2017-Oct-14 15:00N 41°12' W 072°22'4 8.5
2017-Oct-14 14:30N 41°11' W 072°28'4 8.5
2017-Oct-14 14:00N 41°10' W 072°33'4 8.0
2017-Oct-14 13:30N 41°10' W 072°39'5 1.7
2017-Oct-14 10:31N 41°09' W 072°45'0 8.8
2017-Oct-14 10:29N 41°09' W 072°45'4 8.8
2017-Oct-14 10:00N 41°10' W 072°40'4 8.9
2017-Oct-14 09:30N 41°10' W 072°34'5 9.1
2017-Oct-14 08:59N 41°11' W 072°27'5 9.6
2017-Oct-14 08:30N 41°12' W 072°22'6 9.7
2017-Oct-14 07:51N 41°14' W 072°14'1 0.1
2017-Oct-14 01:13N 41°14' W 072°12'310.7
2017-Oct-14 00:56N 41°13' W 072°16'510.8
2017-Oct-14 00:28N 41°12' W 072°23'1110.0
2017-Oct-13 23:20N 41°10' W 072°37'7 2.1
2017-Oct-13 20:08N 41°09' W 072°46'1 9.0
2017-Oct-13 20:00N 41°09' W 072°45'4 9.1
2017-Oct-13 19:30N 41°10' W 072°39'5 9.3
2017-Oct-13 19:00N 41°10' W 072°33'5 9.5
2017-Oct-13 18:30N 41°11' W 072°26'5 9.4
2017-Oct-13 18:00N 41°13' W 072°20'5 8.5
2017-Oct-13 17:22N 41°14' W 072°13'4 0.6
2017-Oct-13 11:15N 41°15' W 072°09'3 9.2
2017-Oct-13 10:59N 41°14' W 072°12'4 9.1
2017-Oct-13 10:29N 41°13' W 072°18'4 8.6
2017-Oct-13 10:00N 41°12' W 072°23'4 8.5
2017-Oct-13 09:30N 41°11' W 072°29'4 8.2
2017-Oct-13 09:00N 41°10' W 072°34'4 7.8
2017-Oct-13 08:30N 41°10' W 072°39'4 7.7
2017-Oct-13 08:00N 41°09' W 072°44'1 0.5
2017-Oct-13 05:11N 41°09' W 072°46'1 8.5
2017-Oct-13 05:00N 41°09' W 072°44'4 8.3
2017-Oct-13 04:30N 41°10' W 072°39'4 8.1
2017-Oct-13 04:00N 41°10' W 072°33'4 7.9
2017-Oct-13 03:30N 41°11' W 072°28'4 7.6
2017-Oct-13 03:00N 41°12' W 072°23'3 6.9
2017-Oct-13 02:30N 41°13' W 072°19'3 6.1
2017-Oct-13 01:59N 41°14' W 072°15'5 0.6
2017-Oct-12 17:41N 41°15' W 072°09'3 6.1
2017-Oct-12 17:13N 41°14' W 072°12'1 6.3
2017-Oct-12 17:00N 41°14' W 072°14'4 6.7
2017-Oct-12 16:26N 41°13' W 072°19'3 7.1
2017-Oct-12 16:00N 41°12' W 072°23'4 7.3
2017-Oct-12 15:30N 41°11' W 072°27'4 7.6
2017-Oct-12 15:00N 41°10' W 072°32'4 7.9
2017-Oct-12 14:30N 41°10' W 072°38'4 8.0
2017-Oct-12 14:00N 41°10' W 072°43'5 1.6
2017-Oct-12 11:02N 41°09' W 072°49'1 4.6
2017-Oct-12 10:44N 41°09' W 072°47'1 4.8
2017-Oct-12 10:30N 41°09' W 072°46'3 6.6
2017-Oct-12 09:59N 41°09' W 072°41'5 8.1
2017-Oct-12 09:24N 41°10' W 072°35'3 8.1
2017-Oct-12 09:01N 41°10' W 072°31'4 8.2
2017-Oct-12 08:30N 41°11' W 072°26'5 9.6
2017-Oct-12 08:00N 41°13' W 072°20'510.1
2017-Oct-12 07:28N 41°14' W 072°13'4 0.6
2017-Oct-12 00:25N 41°15' W 072°08'410.3
2017-Oct-12 00:00N 41°14' W 072°13'510.8
2017-Oct-11 23:31N 41°13' W 072°20'510.4
2017-Oct-11 23:00N 41°11' W 072°26'510.1
2017-Oct-11 22:31N 41°10' W 072°33'5 9.5
2017-Oct-11 22:00N 41°10' W 072°39'9 2.4
2017-Oct-11 18:06N 41°09' W 072°52'1 4.2
2017-Oct-11 17:55N 41°09' W 072°51'3 7.4
2017-Oct-11 17:30N 41°09' W 072°47'5 9.9
2017-Oct-11 17:01N 41°09' W 072°40'15 0.9
2017-Oct-11 00:00N 41°12' W 072°21'3 6.3
2017-Oct-10 23:30N 41°13' W 072°17'3 5.9
2017-Oct-10 23:01N 41°14' W 072°13'  

Dump ship's entire track history